createdAt,value
2022-08-07T00:02:36.255Z,100782.44
2022-08-07T00:06:33.057Z,100784.63
2022-08-07T00:10:48.289Z,100791.22
2022-08-07T00:14:59.802Z,100787.50
2022-08-07T00:19:03.592Z,100786.38
2022-08-07T00:23:09.665Z,100782.66
2022-08-07T00:27:12.204Z,100787.91
2022-08-07T00:31:16.705Z,100794.81
2022-08-07T00:35:23.158Z,100789.91
2022-08-07T00:39:27.311Z,100785.53
2022-08-07T00:43:59.538Z,100790.56
2022-08-07T00:48:07.628Z,100789.06
2022-08-07T00:52:12.551Z,100787.06
2022-08-07T00:56:17.062Z,100785.88
2022-08-07T01:00:20.460Z,100785.84
2022-08-07T01:04:25.105Z,100781.84
2022-08-07T01:08:27.987Z,100780.66
2022-08-07T01:12:32.561Z,100782.50
2022-08-07T01:16:37.415Z,100777.44
2022-08-07T01:20:59.582Z,100779.09
2022-08-07T01:25:53.669Z,100772.69
2022-08-07T01:29:33.955Z,100777.53
2022-08-07T01:33:55.429Z,100776.31
2022-08-07T01:38:03.085Z,100770.50
2022-08-07T01:42:38.250Z,100768.66
2022-08-07T01:46:31.167Z,100774.91
2022-08-07T01:50:37.665Z,100759.78
2022-08-07T01:54:45.884Z,100759.91
2022-08-07T01:58:55.377Z,100763.25
2022-08-07T02:03:18.299Z,100763.53
2022-08-07T02:07:35.815Z,100764.00
2022-08-07T02:12:04.305Z,100766.66
2022-08-07T02:16:12.609Z,100757.91
2022-08-07T02:20:23.292Z,100752.69
2022-08-07T02:24:29.942Z,100749.31
2022-08-07T02:28:34.462Z,100753.63
2022-08-07T02:33:00.773Z,100746.03
2022-08-07T02:37:08.292Z,100750.78
2022-08-07T02:41:14.018Z,100739.47
2022-08-07T02:46:00.330Z,100744.56
2022-08-07T02:49:57.964Z,100748.19
2022-08-07T02:54:08.896Z,100754.66
2022-08-07T02:58:13.925Z,100745.50
2022-08-07T03:02:19.278Z,100739.91
2022-08-07T03:06:25.812Z,100747.66
2022-08-07T03:10:40.866Z,100748.78
2022-08-07T03:14:52.820Z,100753.16
2022-08-07T03:18:56.543Z,100759.88
2022-08-07T03:23:02.627Z,100760.16
2022-08-07T03:27:09.276Z,100759.69
2022-08-07T03:31:26.153Z,100756.84
2022-08-07T03:35:50.062Z,100756.84
2022-08-07T03:40:07.397Z,100751.28
2022-08-07T03:44:21.756Z,100745.94
2022-08-07T03:48:45.521Z,100747.66
2022-08-07T03:52:59.918Z,100750.59
2022-08-07T03:57:07.429Z,100751.59
2022-08-07T04:01:11.924Z,100751.91
2022-08-07T04:05:23.967Z,100746.09
2022-08-07T04:09:44.867Z,100741.31
2022-08-07T04:14:33.269Z,100750.44
2022-08-07T04:18:58.697Z,100753.50
2022-08-07T04:22:53.607Z,100760.25
2022-08-07T04:27:05.299Z,100751.69
2022-08-07T04:31:39.294Z,100759.06
2022-08-07T04:35:51.266Z,100759.75
2022-08-07T04:40:00.210Z,100762.09
2022-08-07T04:44:12.192Z,100761.78
2022-08-07T04:48:34.329Z,100761.75
2022-08-07T04:52:51.180Z,100764.13
2022-08-07T04:58:15.327Z,100761.63
2022-08-07T05:01:40.100Z,100757.41
2022-08-07T05:05:57.384Z,100769.53
2022-08-07T05:10:07.725Z,100776.44
2022-08-07T05:14:55.214Z,100770.19
2022-08-07T05:18:49.465Z,100768.00
2022-08-07T05:22:59.228Z,100769.63
2022-08-07T05:27:03.435Z,100768.25
2022-08-07T05:31:08.761Z,100770.88
2022-08-07T05:35:13.223Z,100773.94
2022-08-07T05:40:05.492Z,100771.31
2022-08-07T05:44:07.537Z,100773.56
2022-08-07T05:48:09.022Z,100774.56
2022-08-07T05:52:20.091Z,100779.88
2022-08-07T05:56:30.228Z,100783.56
2022-08-07T06:00:37.068Z,100783.25
2022-08-07T06:04:50.775Z,100785.16
2022-08-07T06:08:55.145Z,100796.50
2022-08-07T06:13:02.224Z,100782.72
2022-08-07T06:17:08.349Z,100783.41
2022-08-07T06:22:17.021Z,100783.06
2022-08-07T06:25:41.389Z,100788.25
2022-08-07T06:29:59.277Z,100786.72
2022-08-07T06:34:02.545Z,100792.53
2022-08-07T06:38:06.464Z,100781.44
2022-08-07T06:42:17.482Z,100783.75
2022-08-07T06:46:41.427Z,100784.50
2022-08-07T06:50:49.472Z,100782.25
2022-08-07T06:55:33.272Z,100774.69
2022-08-07T07:00:14.717Z,100770.19
2022-08-07T07:03:49.830Z,100780.72
2022-08-07T07:08:03.938Z,100773.88
2022-08-07T07:12:31.276Z,100767.38
2022-08-07T07:16:49.791Z,100768.03
2022-08-07T07:20:58.406Z,100764.69
2022-08-07T07:26:31.669Z,100763.63
2022-08-07T07:29:38.896Z,100763.75
2022-08-07T07:33:48.926Z,100754.88
2022-08-07T07:38:02.902Z,100763.34
2022-08-07T07:42:13.875Z,100754.38
2022-08-07T07:46:36.790Z,100753.53
2022-08-07T07:50:48.841Z,100750.03
2022-08-07T07:54:56.577Z,100744.75
2022-08-07T07:59:01.887Z,100745.69
2022-08-07T08:03:09.218Z,100742.50
2022-08-07T08:07:20.523Z,100733.06
2022-08-07T08:11:59.811Z,100731.06
2022-08-07T08:16:04.330Z,100732.22
2022-08-07T08:20:18.464Z,100736.91
2022-08-07T08:24:45.873Z,100736.59
2022-08-07T08:28:53.399Z,100736.84
2022-08-07T08:33:00.403Z,100731.28
2022-08-07T08:37:09.748Z,100721.97
2022-08-07T08:41:18.649Z,100730.97
2022-08-07T08:45:41.464Z,100720.28
2022-08-07T08:50:05.178Z,100717.97
2022-08-07T08:54:11.981Z,100715.81
2022-08-07T08:58:28.329Z,100711.09
2022-08-07T09:02:41.895Z,100716.00
2022-08-07T09:06:49.037Z,100705.06
2022-08-07T09:11:03.034Z,100703.28
2022-08-07T09:16:21.841Z,100702.91
2022-08-07T09:19:57.457Z,100703.78
2022-08-07T09:24:34.482Z,100696.34
2022-08-07T09:30:05.419Z,100696.59
2022-08-07T09:33:16.438Z,100692.75
2022-08-07T09:37:53.485Z,100678.72
2022-08-07T09:42:07.709Z,100673.38
2022-08-07T09:47:51.358Z,100677.22
2022-08-07T09:51:14.804Z,100671.50
2022-08-07T09:56:03.399Z,100675.38
2022-08-07T10:00:14.817Z,100664.75
2022-08-07T10:04:32.844Z,100666.16
2022-08-07T10:08:56.916Z,100666.06
2022-08-07T10:13:54.919Z,100661.94
2022-08-07T10:18:12.014Z,100660.38
2022-08-07T10:22:36.819Z,100647.22
2022-08-07T10:26:53.004Z,100640.59
2022-08-07T10:31:11.507Z,100644.22
2022-08-07T10:35:25.671Z,100637.97
2022-08-07T10:39:42.192Z,100634.72
2022-08-07T10:44:13.293Z,100621.84
2022-08-07T10:48:42.084Z,100619.06
2022-08-07T10:52:56.502Z,100618.03
2022-08-07T10:57:10.206Z,100613.28
2022-08-07T11:01:35.595Z,100607.06
2022-08-07T11:05:59.643Z,100600.44
2022-08-07T11:10:11.743Z,100595.53
2022-08-07T11:14:44.522Z,100590.00
2022-08-07T11:18:51.006Z,100589.44
2022-08-07T11:23:02.510Z,100583.78
2022-08-07T11:27:16.497Z,100585.19
2022-08-07T11:31:35.126Z,100587.34
2022-08-07T11:36:00.187Z,100573.88
2022-08-07T11:40:19.170Z,100573.03
2022-08-07T11:44:31.145Z,100565.00
2022-08-07T11:49:27.877Z,100559.66
2022-08-07T11:53:35.576Z,100549.56
2022-08-07T11:57:59.533Z,100552.31
2022-08-07T12:02:30.071Z,100546.13
2022-08-07T12:06:51.692Z,100541.25
2022-08-07T12:11:21.876Z,100544.84
2022-08-07T12:15:46.530Z,100537.44
2022-08-07T12:20:03.430Z,100540.69
2022-08-07T12:24:37.515Z,100531.59
2022-08-07T12:28:49.882Z,100526.91
2022-08-07T12:33:18.648Z,100518.31
2022-08-07T12:37:23.483Z,100513.59
2022-08-07T12:41:49.112Z,100515.00
2022-08-07T12:46:25.924Z,100504.31
2022-08-07T12:50:40.245Z,100504.03
2022-08-07T12:55:03.743Z,100496.00
2022-08-07T12:59:20.467Z,100501.78
2022-08-07T13:04:02.120Z,100489.34
2022-08-07T13:08:23.829Z,100497.69
2022-08-07T13:12:38.624Z,100487.47
2022-08-07T13:16:51.555Z,100485.56
2022-08-07T13:20:59.211Z,100488.78
2022-08-07T13:25:10.228Z,100478.09
2022-08-07T13:29:24.645Z,100467.81
2022-08-07T13:34:32.139Z,100459.72
2022-08-07T13:38:04.879Z,100457.56
2022-08-07T13:42:14.544Z,100458.56
2022-08-07T13:46:33.819Z,100449.47
2022-08-07T13:50:45.319Z,100444.88
2022-08-07T13:55:07.961Z,100434.72
2022-08-07T13:59:21.427Z,100437.22
2022-08-07T14:03:29.911Z,100430.91
2022-08-07T14:07:59.981Z,100431.22
2022-08-07T14:12:10.560Z,100430.44
2022-08-07T14:16:17.711Z,100424.59
2022-08-07T14:20:39.262Z,100423.78
2022-08-07T14:24:51.152Z,100423.34
2022-08-07T14:28:59.045Z,100417.03
2022-08-07T14:33:06.189Z,100420.63
2022-08-07T14:42:20.071Z,100413.81
2022-08-07T14:46:00.089Z,100403.09
2022-08-07T14:50:11.485Z,100400.19
2022-08-07T14:54:32.877Z,100393.16
2022-08-07T14:58:40.070Z,100400.84
2022-08-07T15:02:47.045Z,100391.25
2022-08-07T15:07:01.200Z,100374.38
2022-08-07T15:13:06.525Z,100380.75
2022-08-07T15:15:53.407Z,100394.91
2022-08-07T15:20:32.367Z,100381.56
2022-08-07T15:25:12.959Z,100383.38
2022-08-07T15:30:09.206Z,100384.13
2022-08-07T15:33:22.528Z,100372.06
2022-08-07T15:38:18.337Z,100374.47
2022-08-07T15:42:43.441Z,100366.13
2022-08-07T15:51:08.665Z,100360.00
2022-08-07T15:55:16.103Z,100366.63
2022-08-07T15:59:38.949Z,100367.03
2022-08-07T16:03:57.364Z,100361.91
2022-08-07T16:08:32.106Z,100361.19
2022-08-07T16:12:37.831Z,100354.81
2022-08-07T16:16:56.797Z,100359.38
2022-08-07T16:22:02.466Z,100359.16
2022-08-07T16:25:55.300Z,100347.38
2022-08-07T16:30:30.460Z,100351.19
2022-08-07T16:34:48.089Z,100346.50
2022-08-07T16:39:16.704Z,100349.44
2022-08-07T16:44:05.658Z,100346.13
2022-08-07T16:48:53.655Z,100368.16
2022-08-07T16:54:02.073Z,100353.06
2022-08-07T16:58:04.106Z,100362.06
2022-08-07T17:02:52.287Z,100358.78
2022-08-07T17:07:04.017Z,100356.50
2022-08-07T17:11:14.406Z,100354.59
2022-08-07T17:15:21.822Z,100361.44
2022-08-07T17:20:01.665Z,100359.13
2022-08-07T17:24:23.716Z,100370.84
2022-08-07T17:28:38.161Z,100360.47
2022-08-07T17:33:05.224Z,100363.59
2022-08-07T17:38:06.419Z,100359.97
2022-08-07T17:42:03.755Z,100362.31
2022-08-07T17:46:16.151Z,100361.84
2022-08-07T17:50:21.481Z,100360.09
2022-08-07T17:54:54.053Z,100365.56
2022-08-07T17:59:02.512Z,100369.09
2022-08-07T18:03:19.139Z,100359.69
2022-08-07T18:07:34.246Z,100363.03
2022-08-07T18:12:06.775Z,100363.38
2022-08-07T18:16:11.400Z,100361.97
2022-08-07T18:21:03.433Z,100361.88
2022-08-07T18:24:53.483Z,100367.69
2022-08-07T18:30:07.918Z,100367.91
2022-08-07T18:34:04.900Z,100376.03
2022-08-07T18:38:56.135Z,100388.53
2022-08-07T18:43:10.092Z,100389.44
2022-08-07T18:47:20.960Z,100383.75
2022-08-07T18:52:34.873Z,100391.28
2022-08-07T18:56:08.102Z,100398.41
2022-08-07T19:00:34.580Z,100400.97
2022-08-07T19:04:57.907Z,100408.38
2022-08-07T19:09:57.487Z,100410.72
2022-08-07T19:13:55.342Z,100416.72
2022-08-07T19:18:15.485Z,100421.25
2022-08-07T19:22:30.765Z,100427.75
2022-08-07T19:27:09.164Z,100424.81
2022-08-07T19:31:38.193Z,100437.66
2022-08-07T19:35:35.305Z,100441.53
2022-08-07T19:39:57.389Z,100446.56
2022-08-07T19:44:05.389Z,100447.38
2022-08-07T19:48:42.126Z,100451.38
2022-08-07T19:52:45.702Z,100454.63
2022-08-07T19:58:01.164Z,100457.97
2022-08-07T20:01:52.954Z,100465.47
2022-08-07T20:06:00.692Z,100468.31
2022-08-07T20:10:35.275Z,100468.41
2022-08-07T20:14:32.542Z,100460.28
2022-08-07T20:18:35.792Z,100474.63
